createdAt,value
2023-01-30T00:02:28.131Z,42.63
2023-01-30T00:05:31.375Z,46.22
2023-01-30T00:08:35.053Z,53.15
2023-01-30T00:11:38.371Z,45.88
2023-01-30T00:14:41.407Z,52.25
2023-01-30T00:17:45.446Z,56.78
2023-01-30T00:20:48.334Z,50.00
2023-01-30T00:23:51.689Z,48.92
2023-01-30T00:26:54.717Z,58.38
2023-01-30T00:30:03.325Z,46.55
2023-01-30T00:33:07.515Z,52.25
2023-01-30T00:36:12.221Z,43.67
2023-01-30T00:39:16.011Z,51.30
2023-01-30T00:42:37.980Z,50.67
2023-01-30T00:46:02.836Z,48.35
2023-01-30T00:49:05.851Z,58.97
2023-01-30T00:52:10.776Z,80.32
2023-01-30T00:55:16.656Z,83.70
2023-01-30T00:58:21.484Z,78.72
2023-01-30T01:01:25.248Z,76.85
2023-01-30T01:04:28.593Z,84.25
2023-01-30T01:07:32.535Z,86.90
2023-01-30T02:24:39.224Z,42.22
2023-01-30T02:28:39.635Z,47.05
2023-01-30T02:31:50.947Z,60.35
2023-01-30T02:35:32.279Z,76.43
2023-01-30T02:38:45.186Z,83.00
2023-01-30T02:41:58.288Z,101.15
2023-01-30T02:45:01.690Z,94.40
2023-01-30T02:48:07.705Z,105.88
2023-01-30T02:51:19.491Z,117.97
2023-01-30T02:54:23.946Z,118.45
2023-01-30T02:57:28.355Z,121.75
2023-01-30T03:00:51.932Z,117.45
2023-01-30T03:04:36.225Z,119.38
2023-01-30T03:07:46.427Z,112.53
2023-01-30T03:11:01.582Z,123.90
2023-01-30T03:14:17.038Z,129.32
2023-01-30T03:17:23.771Z,121.60
2023-01-30T03:20:28.130Z,122.90
2023-01-30T03:23:32.040Z,125.32
2023-01-30T03:26:41.470Z,123.43
2023-01-30T03:29:46.250Z,113.05
2023-01-30T03:32:49.758Z,123.00
2023-01-30T03:35:53.572Z,121.57
2023-01-30T03:38:57.680Z,118.43
2023-01-30T03:42:01.841Z,124.57
2023-01-30T03:45:05.742Z,123.90
2023-01-30T03:48:08.917Z,123.55
2023-01-30T03:51:13.277Z,118.65
2023-01-30T03:54:16.975Z,113.57
2023-01-30T03:57:21.238Z,117.03
2023-01-30T04:00:25.385Z,108.72
2023-01-30T04:03:28.780Z,108.82
2023-01-30T04:06:36.525Z,116.75
2023-01-30T04:09:40.988Z,98.32
2023-01-30T04:12:44.822Z,100.43
2023-01-30T04:15:48.958Z,97.50
2023-01-30T04:19:15.062Z,89.88
2023-01-30T04:22:19.649Z,80.93
2023-01-30T04:25:24.137Z,80.00
2023-01-30T04:28:28.828Z,76.65
2023-01-30T04:31:33.128Z,79.25
2023-01-30T04:34:44.347Z,79.13
2023-01-30T04:37:47.629Z,75.75
2023-01-30T04:40:57.650Z,79.53
2023-01-30T04:44:02.972Z,73.47
2023-01-30T04:47:13.440Z,68.95
2023-01-30T04:50:17.247Z,73.18
2023-01-30T04:53:21.262Z,57.17
2023-01-30T04:56:24.545Z,49.50
2023-01-30T04:59:29.485Z,50.42
2023-01-30T05:02:34.248Z,53.78
2023-01-30T05:05:38.252Z,53.20
2023-01-30T05:08:46.877Z,54.80
2023-01-30T05:11:51.068Z,62.20
2023-01-30T05:14:54.244Z,65.15
2023-01-30T05:17:59.035Z,69.15
2023-01-30T05:21:14.287Z,61.63
2023-01-30T05:24:17.967Z,56.50
2023-01-30T05:27:21.920Z,56.42
2023-01-30T05:30:25.649Z,60.15
2023-01-30T05:33:28.645Z,56.92
2023-01-30T05:36:32.306Z,58.45
2023-01-30T05:39:35.726Z,59.00
2023-01-30T05:42:38.725Z,58.75
2023-01-30T05:45:42.314Z,57.80
2023-01-30T05:48:45.251Z,61.00
2023-01-30T05:51:50.591Z,61.55
2023-01-30T05:54:54.490Z,57.38
2023-01-30T05:57:57.457Z,57.97
2023-01-30T06:01:10.237Z,62.20
2023-01-30T06:04:14.457Z,64.38
2023-01-30T06:07:18.057Z,60.88
2023-01-30T06:10:21.708Z,57.58
2023-01-30T06:13:24.707Z,51.78
2023-01-30T06:16:28.838Z,50.97
2023-01-30T06:19:32.515Z,44.33
2023-01-30T06:22:35.775Z,40.33
2023-01-30T06:25:39.407Z,38.33
2023-01-30T06:28:43.763Z,39.13
2023-01-30T06:31:47.734Z,41.53
2023-01-30T06:34:51.074Z,41.97
2023-01-30T06:37:54.964Z,47.65
2023-01-30T06:40:59.008Z,44.03
2023-01-30T06:44:02.640Z,43.13
2023-01-30T06:47:06.769Z,43.40
2023-01-30T06:50:10.640Z,41.10
2023-01-30T06:53:13.598Z,40.58
2023-01-30T06:56:17.464Z,38.80
2023-01-30T06:59:20.695Z,41.25
2023-01-30T07:02:24.291Z,41.70
2023-01-30T07:05:29.716Z,38.05
2023-01-30T07:08:33.524Z,38.95
2023-01-30T07:11:36.766Z,36.33
2023-01-30T07:14:40.442Z,37.63
2023-01-30T07:17:44.201Z,40.17
2023-01-30T07:20:49.440Z,40.22
2023-01-30T07:23:53.042Z,43.17
2023-01-30T07:26:56.635Z,38.78
2023-01-30T07:30:00.506Z,39.38
2023-01-30T07:33:06.046Z,39.25
2023-01-30T07:36:10.211Z,34.72
2023-01-30T07:39:13.876Z,36.35
2023-01-30T07:42:17.648Z,39.42
2023-01-30T07:45:21.583Z,39.50
2023-01-30T07:48:25.628Z,39.78
2023-01-30T07:51:28.842Z,38.10
2023-01-30T07:54:32.958Z,33.42
2023-01-30T07:57:36.638Z,32.55
2023-01-30T08:00:39.849Z,29.40
2023-01-30T08:03:46.333Z,28.70
2023-01-30T08:06:52.457Z,28.73
2023-01-30T08:09:55.450Z,23.63
2023-01-30T08:12:59.196Z,28.02
2023-01-30T08:16:04.247Z,25.25
2023-01-30T08:19:07.901Z,27.83
2023-01-30T08:22:11.583Z,27.30
2023-01-30T08:25:14.926Z,30.35
2023-01-30T08:28:17.886Z,26.65
2023-01-30T08:31:21.273Z,26.52
2023-01-30T08:34:25.700Z,27.58
2023-01-30T08:37:29.663Z,25.50
2023-01-30T08:40:32.657Z,24.98
2023-01-30T08:43:37.015Z,27.88
2023-01-30T08:46:40.841Z,29.55
2023-01-30T08:49:44.249Z,25.38
2023-01-30T08:52:47.905Z,17.33
2023-01-30T08:55:53.807Z,28.27
2023-01-30T08:58:57.052Z,26.23
2023-01-30T09:02:01.059Z,24.77
2023-01-30T09:05:05.833Z,28.00
2023-01-30T09:08:09.116Z,32.17
2023-01-30T09:11:13.393Z,25.58
2023-01-30T09:14:20.948Z,25.58
2023-01-30T09:17:25.545Z,30.65
2023-01-30T09:20:29.164Z,21.70
2023-01-30T09:23:32.564Z,34.67
2023-01-30T09:26:36.065Z,28.65
2023-01-30T09:29:39.792Z,25.73
2023-01-30T09:32:43.417Z,24.35
2023-01-30T09:35:51.044Z,23.15
2023-01-30T09:42:07.010Z,21.98
2023-01-30T09:46:02.969Z,25.55
2023-01-30T09:49:23.487Z,30.35
2023-01-30T09:52:52.348Z,32.50
2023-01-30T09:55:59.788Z,39.08
2023-01-30T09:59:05.255Z,43.50
2023-01-30T10:02:10.865Z,42.80
2023-01-30T10:05:14.262Z,40.95
2023-01-30T10:08:50.644Z,41.88
2023-01-30T10:12:04.855Z,43.78
2023-01-30T10:15:15.737Z,37.70
2023-01-30T10:18:49.844Z,42.08
2023-01-30T10:22:18.553Z,39.55
2023-01-30T10:25:31.051Z,38.25
2023-01-30T10:29:10.833Z,33.30
2023-01-30T10:32:21.681Z,34.03
2023-01-30T10:35:31.887Z,30.33
2023-01-30T10:38:52.117Z,31.00
2023-01-30T10:42:03.145Z,34.80
2023-01-30T10:45:41.487Z,34.72
2023-01-30T10:49:03.077Z,33.30
2023-01-30T10:52:48.562Z,38.40
2023-01-30T10:56:17.716Z,39.53
2023-01-30T10:59:30.422Z,36.75
2023-01-30T11:02:59.776Z,41.17
2023-01-30T11:06:09.304Z,44.75
2023-01-30T11:09:12.974Z,46.75
2023-01-30T11:12:17.111Z,43.03
2023-01-30T11:15:25.401Z,48.22
2023-01-30T11:21:55.129Z,49.33
2023-01-30T11:25:17.335Z,61.70
2023-01-30T11:28:21.080Z,54.30
2023-01-30T11:31:40.805Z,54.95
2023-01-30T11:34:45.521Z,52.88
2023-01-30T11:37:49.590Z,56.08
2023-01-30T11:41:04.256Z,56.88
2023-01-30T11:44:10.508Z,55.22
2023-01-30T11:47:27.557Z,55.83
2023-01-30T11:50:44.122Z,55.45
2023-01-30T11:53:55.403Z,53.42
2023-01-30T11:57:02.629Z,49.85
2023-01-30T12:00:07.297Z,47.08
2023-01-30T12:03:22.509Z,50.95
2023-01-30T12:06:37.641Z,47.17
2023-01-30T12:09:41.853Z,47.75
2023-01-30T12:12:50.062Z,41.55
2023-01-30T12:16:24.083Z,39.67
2023-01-30T12:19:34.728Z,37.03
2023-01-30T12:23:00.666Z,40.80
2023-01-30T12:26:45.724Z,54.38
2023-01-30T12:30:04.365Z,57.63
2023-01-30T12:33:16.062Z,73.03
2023-01-30T12:36:31.550Z,82.97
2023-01-30T12:40:18.211Z,96.60
2023-01-30T12:44:02.965Z,93.32
2023-01-30T12:47:39.203Z,81.00
2023-01-30T12:51:02.108Z,94.22
2023-01-30T12:54:41.218Z,98.10
2023-01-30T12:58:07.637Z,92.85
2023-01-30T13:01:30.196Z,94.68
2023-01-30T13:05:02.251Z,94.50
2023-01-30T13:08:28.916Z,89.55
2023-01-30T13:11:51.496Z,78.88
2023-01-30T13:15:23.812Z,81.88
2023-01-30T13:18:36.767Z,90.47
2023-01-30T13:21:49.944Z,110.30
2023-01-30T13:25:34.261Z,127.90
2023-01-30T13:28:44.445Z,143.10
2023-01-30T13:31:54.825Z,135.43
2023-01-30T13:35:00.541Z,135.05
2023-01-30T13:38:08.391Z,142.88
2023-01-30T13:41:26.897Z,133.65
2023-01-30T13:44:33.284Z,108.90
2023-01-30T13:47:44.817Z,83.72
2023-01-30T13:51:08.729Z,85.18
2023-01-30T13:54:12.383Z,71.28
2023-01-30T13:57:33.355Z,77.82
2023-01-30T14:00:37.458Z,77.75
2023-01-30T14:03:42.134Z,65.18
2023-01-30T14:06:45.225Z,66.80
2023-01-30T14:10:11.658Z,98.35
2023-01-30T14:13:17.299Z,87.50
2023-01-30T14:16:21.452Z,97.28
2023-01-30T14:19:33.714Z,94.80
2023-01-30T14:22:58.621Z,103.22
2023-01-30T14:26:03.103Z,99.82
2023-01-30T14:29:08.725Z,103.00
2023-01-30T14:32:14.985Z,99.20
2023-01-30T14:35:23.369Z,95.18
2023-01-30T14:41:30.859Z,87.65
2023-01-30T14:45:16.889Z,100.28
2023-01-30T14:48:50.392Z,110.13
2023-01-30T14:51:57.122Z,133.15
2023-01-30T14:55:00.688Z,130.13
2023-01-30T14:58:08.022Z,161.30
2023-01-30T15:01:11.741Z,157.88
2023-01-30T15:04:17.797Z,157.80
2023-01-30T15:07:29.306Z,147.70
2023-01-30T15:10:51.526Z,145.93
2023-01-30T15:13:55.127Z,137.10
2023-01-30T15:17:29.216Z,146.20
2023-01-30T15:21:03.063Z,140.95
2023-01-30T15:24:29.056Z,148.65
2023-01-30T15:28:02.705Z,111.90
2023-01-30T15:31:31.064Z,105.28
2023-01-30T15:34:35.065Z,105.20
2023-01-30T15:37:41.082Z,223.60
2023-01-30T15:40:44.619Z,232.40
2023-01-30T15:44:11.170Z,229.13
2023-01-30T15:47:19.733Z,216.98
2023-01-30T15:50:23.682Z,188.07
2023-01-30T15:53:33.281Z,159.52
2023-01-30T15:56:36.911Z,146.88
2023-01-30T15:59:40.653Z,90.40
2023-01-30T16:02:45.483Z,103.13
2023-01-30T16:05:55.894Z,66.38
2023-01-30T16:09:04.677Z,96.28
2023-01-30T16:12:25.022Z,53.47
2023-01-30T16:15:55.437Z,66.65
2023-01-30T16:19:02.570Z,69.53
2023-01-30T16:22:16.520Z,53.90
2023-01-30T16:25:23.811Z,55.83
2023-01-30T16:28:29.487Z,40.00
2023-01-30T16:31:40.092Z,46.67
2023-01-30T16:34:43.540Z,37.30
2023-01-30T16:37:47.624Z,31.35
2023-01-30T16:40:51.185Z,33.33
2023-01-30T16:44:11.017Z,33.20
2023-01-30T16:47:29.777Z,24.80
2023-01-30T16:50:33.279Z,26.02
2023-01-30T16:53:37.315Z,22.88
2023-01-30T16:56:48.721Z,25.67
2023-01-30T16:59:52.293Z,23.13
2023-01-30T17:02:58.939Z,27.58
2023-01-30T17:06:13.278Z,24.88
2023-01-30T17:09:42.960Z,27.83
2023-01-30T17:12:50.835Z,36.47
2023-01-30T17:15:54.253Z,42.42
2023-01-30T17:18:59.065Z,52.15
2023-01-30T17:22:05.508Z,111.65
2023-01-30T17:25:18.114Z,87.82
2023-01-30T17:28:24.614Z,120.00
2023-01-30T17:31:27.701Z,29.20
2023-01-30T17:34:31.485Z,43.85
2023-01-30T17:37:35.560Z,45.78
2023-01-30T17:40:39.394Z,33.70
2023-01-30T17:43:43.019Z,32.95
2023-01-30T17:46:48.145Z,43.20
2023-01-30T17:49:51.508Z,49.25
2023-01-30T17:52:55.237Z,76.18
2023-01-30T17:55:58.957Z,38.22
2023-01-30T17:59:01.961Z,80.65
2023-01-30T18:02:06.051Z,74.88
2023-01-30T18:05:10.559Z,44.80
2023-01-30T18:08:14.974Z,26.73
2023-01-30T18:11:17.995Z,26.90
2023-01-30T18:14:22.926Z,41.88
2023-01-30T18:17:30.937Z,34.70
2023-01-30T18:23:38.096Z,40.78
2023-01-30T18:26:42.925Z,38.13
2023-01-30T18:29:46.259Z,35.45
2023-01-30T18:32:53.352Z,27.35
2023-01-30T18:35:56.953Z,29.98
2023-01-30T18:39:00.591Z,16.70
2023-01-30T18:42:04.656Z,19.95
2023-01-30T18:45:08.367Z,31.23
2023-01-30T18:48:11.993Z,23.92
2023-01-30T18:51:20.080Z,35.83
2023-01-30T18:54:23.192Z,13.90
2023-01-30T18:57:26.820Z,16.42
2023-01-30T19:00:30.229Z,26.85
2023-01-30T19:03:34.106Z,18.80
2023-01-30T19:06:39.648Z,27.00
2023-01-30T19:09:43.374Z,16.25
2023-01-30T19:13:05.614Z,13.55
2023-01-30T19:16:09.840Z,20.08
2023-01-30T19:19:13.797Z,20.98
2023-01-30T19:22:18.279Z,24.77
2023-01-30T19:25:22.270Z,20.13
2023-01-30T19:28:26.411Z,21.17
2023-01-30T19:31:30.030Z,20.40
2023-01-30T19:34:33.920Z,16.42
2023-01-30T19:37:38.944Z,13.82
2023-01-30T19:40:48.394Z,13.35
2023-01-30T19:43:53.326Z,9.63
2023-01-30T19:46:56.380Z,13.23
2023-01-30T19:50:00.022Z,9.60
2023-01-30T19:53:04.061Z,8.40
2023-01-30T19:56:08.328Z,9.35
2023-01-30T19:59:14.119Z,9.70
2023-01-30T20:02:17.033Z,6.25
2023-01-30T20:05:21.943Z,6.88
2023-01-30T20:08:32.192Z,8.75
2023-01-30T20:11:38.407Z,9.05
2023-01-30T20:14:42.056Z,13.63
2023-01-30T20:17:45.835Z,10.68
2023-01-30T20:20:49.447Z,12.55
2023-01-30T20:23:53.985Z,12.70
2023-01-30T20:26:57.795Z,11.10
2023-01-30T20:30:01.435Z,9.85
2023-01-30T20:33:04.481Z,7.63
2023-01-30T20:36:11.581Z,6.63
2023-01-30T20:39:22.648Z,6.43
2023-01-30T20:42:29.027Z,6.95
2023-01-30T20:45:32.839Z,5.73
2023-01-30T20:48:39.281Z,7.20
2023-01-30T20:51:43.312Z,6.70
2023-01-30T20:54:47.313Z,4.32
2023-01-30T20:57:50.443Z,7.25
2023-01-30T21:00:55.881Z,5.20
2023-01-30T21:03:58.974Z,5.43
2023-01-30T21:07:02.277Z,7.93
2023-01-30T21:10:06.243Z,8.50
2023-01-30T21:13:10.137Z,5.88
2023-01-30T21:16:21.847Z,4.68
2023-01-30T21:19:25.399Z,5.40
2023-01-30T21:22:29.740Z,3.90
2023-01-30T21:25:33.028Z,4.47
2023-01-30T21:28:39.163Z,5.90
2023-01-30T21:31:44.920Z,5.47
2023-01-30T21:34:48.084Z,6.50
2023-01-30T21:38:10.702Z,4.40
2023-01-30T21:41:43.596Z,6.07
2023-01-30T21:44:47.300Z,5.30
2023-01-30T21:47:54.836Z,4.72
2023-01-30T21:50:58.261Z,4.45
2023-01-30T21:54:02.516Z,3.90
2023-01-30T21:57:06.204Z,3.92
2023-01-30T22:00:09.917Z,3.25
2023-01-30T22:03:13.624Z,2.67
2023-01-30T22:06:16.672Z,3.47
2023-01-30T22:09:19.586Z,2.80
2023-01-30T22:12:23.490Z,3.67
2023-01-30T22:15:26.996Z,2.95
2023-01-30T22:18:31.367Z,3.70
2023-01-30T22:21:40.381Z,3.97
2023-01-30T22:24:44.201Z,4.00
2023-01-30T22:27:47.549Z,3.05
2023-01-30T22:30:51.644Z,3.35
2023-01-30T22:33:57.394Z,1.80
2023-01-30T22:37:02.191Z,2.35
2023-01-30T22:40:05.967Z,2.92
2023-01-30T22:43:09.516Z,3.30
2023-01-30T22:46:14.776Z,4.05
2023-01-30T22:49:17.757Z,3.40
2023-01-30T22:52:21.783Z,1.75
2023-01-30T22:55:25.087Z,2.38
2023-01-30T22:58:29.070Z,2.17
2023-01-30T23:01:36.098Z,3.25
2023-01-30T23:04:40.119Z,2.72
2023-01-30T23:07:43.526Z,3.22
2023-01-30T23:10:47.006Z,2.33
2023-01-30T23:13:53.556Z,3.20
2023-01-30T23:17:26.820Z,3.13
2023-01-30T23:20:30.099Z,3.40
2023-01-30T23:23:33.751Z,2.63
2023-01-30T23:26:40.172Z,2.40
2023-01-30T23:29:44.332Z,2.05
2023-01-30T23:32:48.366Z,3.35
2023-01-30T23:35:51.559Z,2.35
2023-01-30T23:39:00.517Z,3.40
2023-01-30T23:42:03.712Z,2.92
2023-01-30T23:45:08.017Z,5.03
2023-01-30T23:48:11.414Z,2.00
2023-01-30T23:51:16.664Z,3.95
2023-01-30T23:54:19.935Z,4.38
2023-01-30T23:57:23.131Z,3.92
